sensor_id;sensor_type;location;lat;lon;timestamp;P1;durP1;ratioP1;P2;durP2;ratioP2
17961;SDS011;9106;52.438;13.364;2022-07-29T00:00:48;5.40;;;2.75;;
17961;SDS011;9106;52.438;13.364;2022-07-29T00:05:56;11.75;;;2.95;;
17961;SDS011;9106;52.438;13.364;2022-07-29T00:11:01;5.65;;;2.80;;
17961;SDS011;9106;52.438;13.364;2022-07-29T00:16:07;7.25;;;3.20;;
17961;SDS011;9106;52.438;13.364;2022-07-29T00:21:11;13.15;;;3.28;;
17961;SDS011;9106;52.438;13.364;2022-07-29T00:26:14;6.13;;;2.83;;
17961;SDS011;9106;52.438;13.364;2022-07-29T00:31:18;6.63;;;3.03;;
17961;SDS011;9106;52.438;13.364;2022-07-29T00:36:23;11.27;;;3.15;;
17961;SDS011;9106;52.438;13.364;2022-07-29T00:41:26;4.85;;;2.80;;
17961;SDS011;9106;52.438;13.364;2022-07-29T00:46:30;5.75;;;3.03;;
17961;SDS011;9106;52.438;13.364;2022-07-29T00:51:33;5.05;;;3.05;;
17961;SDS011;9106;52.438;13.364;2022-07-29T00:56:36;9.25;;;3.10;;
17961;SDS011;9106;52.438;13.364;2022-07-29T01:01:42;4.97;;;2.95;;
17961;SDS011;9106;52.438;13.364;2022-07-29T01:06:45;6.43;;;3.08;;
17961;SDS011;9106;52.438;13.364;2022-07-29T01:11:50;5.63;;;3.05;;
17961;SDS011;9106;52.438;13.364;2022-07-29T01:16:58;5.70;;;3.10;;
17961;SDS011;9106;52.438;13.364;2022-07-29T01:22:07;6.25;;;3.00;;
17961;SDS011;9106;52.438;13.364;2022-07-29T01:27:23;5.32;;;3.10;;
17961;SDS011;9106;52.438;13.364;2022-07-29T01:32:33;7.30;;;3.10;;
17961;SDS011;9106;52.438;13.364;2022-07-29T01:37:39;6.47;;;2.97;;
17961;SDS011;9106;52.438;13.364;2022-07-29T01:42:46;6.28;;;3.00;;
17961;SDS011;9106;52.438;13.364;2022-07-29T01:47:56;9.25;;;3.33;;
17961;SDS011;9106;52.438;13.364;2022-07-29T01:53:03;5.07;;;2.88;;
17961;SDS011;9106;52.438;13.364;2022-07-29T01:58:07;5.38;;;2.95;;
17961;SDS011;9106;52.438;13.364;2022-07-29T02:03:15;5.90;;;3.22;;
17961;SDS011;9106;52.438;13.364;2022-07-29T02:08:20;6.38;;;3.10;;
17961;SDS011;9106;52.438;13.364;2022-07-29T02:13:23;6.72;;;3.28;;
17961;SDS011;9106;52.438;13.364;2022-07-29T02:18:28;8.30;;;3.45;;
17961;SDS011;9106;52.438;13.364;2022-07-29T02:23:34;10.82;;;3.45;;
17961;SDS011;9106;52.438;13.364;2022-07-29T02:28:54;5.57;;;3.25;;
17961;SDS011;9106;52.438;13.364;2022-07-29T02:33:59;7.45;;;3.08;;
17961;SDS011;9106;52.438;13.364;2022-07-29T02:39:03;4.57;;;3.22;;
17961;SDS011;9106;52.438;13.364;2022-07-29T02:44:11;5.05;;;2.97;;
17961;SDS011;9106;52.438;13.364;2022-07-29T02:49:18;5.13;;;2.95;;
17961;SDS011;9106;52.438;13.364;2022-07-29T02:54:26;5.28;;;3.13;;
17961;SDS011;9106;52.438;13.364;2022-07-29T02:59:37;6.60;;;3.10;;
17961;SDS011;9106;52.438;13.364;2022-07-29T03:04:44;5.10;;;2.67;;
17961;SDS011;9106;52.438;13.364;2022-07-29T03:09:59;8.30;;;3.13;;
17961;SDS011;9106;52.438;13.364;2022-07-29T03:15:16;8.73;;;3.22;;
17961;SDS011;9106;52.438;13.364;2022-07-29T03:20:27;4.85;;;2.75;;
17961;SDS011;9106;52.438;13.364;2022-07-29T03:25:33;5.65;;;3.00;;
17961;SDS011;9106;52.438;13.364;2022-07-29T03:30:38;6.28;;;3.00;;
17961;SDS011;9106;52.438;13.364;2022-07-29T03:35:46;6.25;;;2.92;;
17961;SDS011;9106;52.438;13.364;2022-07-29T03:40:51;6.15;;;3.10;;
17961;SDS011;9106;52.438;13.364;2022-07-29T03:45:55;6.00;;;3.30;;
17961;SDS011;9106;52.438;13.364;2022-07-29T03:51:01;6.25;;;3.22;;
17961;SDS011;9106;52.438;13.364;2022-07-29T03:56:07;7.63;;;3.25;;
17961;SDS011;9106;52.438;13.364;2022-07-29T04:01:13;5.15;;;2.83;;
17961;SDS011;9106;52.438;13.364;2022-07-29T04:06:17;5.07;;;3.17;;
17961;SDS011;9106;52.438;13.364;2022-07-29T04:11:31;5.70;;;3.10;;
17961;SDS011;9106;52.438;13.364;2022-07-29T04:17:05;9.65;;;3.67;;
17961;SDS011;9106;52.438;13.364;2022-07-29T04:22:11;9.80;;;3.70;;
17961;SDS011;9106;52.438;13.364;2022-07-29T04:27:23;5.85;;;3.28;;
17961;SDS011;9106;52.438;13.364;2022-07-29T04:32:26;6.63;;;3.30;;
17961;SDS011;9106;52.438;13.364;2022-07-29T04:37:30;4.53;;;3.17;;
17961;SDS011;9106;52.438;13.364;2022-07-29T04:42:33;6.78;;;3.20;;
17961;SDS011;9106;52.438;13.364;2022-07-29T04:47:47;5.85;;;3.10;;
17961;SDS011;9106;52.438;13.364;2022-07-29T04:52:51;6.57;;;2.83;;
17961;SDS011;9106;52.438;13.364;2022-07-29T04:57:54;6.32;;;3.03;;
17961;SDS011;9106;52.438;13.364;2022-07-29T05:02:57;4.95;;;3.30;;
17961;SDS011;9106;52.438;13.364;2022-07-29T05:08:02;4.88;;;3.13;;
17961;SDS011;9106;52.438;13.364;2022-07-29T05:13:05;6.78;;;3.03;;
17961;SDS011;9106;52.438;13.364;2022-07-29T05:18:09;5.75;;;3.25;;
17961;SDS011;9106;52.438;13.364;2022-07-29T05:23:13;4.10;;;2.70;;
17961;SDS011;9106;52.438;13.364;2022-07-29T05:28:17;4.60;;;3.05;;
17961;SDS011;9106;52.438;13.364;2022-07-29T05:39:13;9.93;;;3.42;;
17961;SDS011;9106;52.438;13.364;2022-07-29T05:44:19;5.40;;;3.10;;
17961;SDS011;9106;52.438;13.364;2022-07-29T05:49:25;6.32;;;2.90;;
17961;SDS011;9106;52.438;13.364;2022-07-29T05:54:31;4.60;;;2.80;;
17961;SDS011;9106;52.438;13.364;2022-07-29T05:59:35;5.35;;;3.08;;
17961;SDS011;9106;52.438;13.364;2022-07-29T06:04:47;5.53;;;2.75;;
17961;SDS011;9106;52.438;13.364;2022-07-29T06:10:07;4.70;;;2.88;;
17961;SDS011;9106;52.438;13.364;2022-07-29T06:20:35;7.80;;;3.13;;
17961;SDS011;9106;52.438;13.364;2022-07-29T06:25:40;10.02;;;3.30;;
17961;SDS011;9106;52.438;13.364;2022-07-29T06:30:43;8.30;;;3.10;;
17961;SDS011;9106;52.438;13.364;2022-07-29T06:35:46;5.53;;;3.17;;
17961;SDS011;9106;52.438;13.364;2022-07-29T06:40:57;6.03;;;2.97;;
17961;SDS011;9106;52.438;13.364;2022-07-29T06:46:06;6.95;;;3.38;;
17961;SDS011;9106;52.438;13.364;2022-07-29T06:51:10;9.73;;;2.85;;
17961;SDS011;9106;52.438;13.364;2022-07-29T06:56:15;5.63;;;2.70;;
17961;SDS011;9106;52.438;13.364;2022-07-29T07:01:17;3.95;;;2.92;;
17961;SDS011;9106;52.438;13.364;2022-07-29T07:06:22;3.90;;;2.42;;
17961;SDS011;9106;52.438;13.364;2022-07-29T07:11:26;7.10;;;3.28;;
17961;SDS011;9106;52.438;13.364;2022-07-29T07:16:29;8.13;;;2.75;;
17961;SDS011;9106;52.438;13.364;2022-07-29T07:21:33;7.45;;;2.90;;
17961;SDS011;9106;52.438;13.364;2022-07-29T07:26:38;5.63;;;2.75;;
17961;SDS011;9106;52.438;13.364;2022-07-29T07:31:42;4.10;;;2.55;;
17961;SDS011;9106;52.438;13.364;2022-07-29T07:36:44;4.50;;;2.70;;
17961;SDS011;9106;52.438;13.364;2022-07-29T07:41:49;5.88;;;2.65;;
17961;SDS011;9106;52.438;13.364;2022-07-29T07:46:52;3.67;;;2.25;;
17961;SDS011;9106;52.438;13.364;2022-07-29T07:51:55;6.90;;;2.67;;
17961;SDS011;9106;52.438;13.364;2022-07-29T07:56:59;4.53;;;2.50;;
17961;SDS011;9106;52.438;13.364;2022-07-29T08:02:03;7.63;;;2.67;;
17961;SDS011;9106;52.438;13.364;2022-07-29T08:07:07;4.10;;;2.67;;
17961;SDS011;9106;52.438;13.364;2022-07-29T08:12:12;3.88;;;2.50;;
17961;SDS011;9106;52.438;13.364;2022-07-29T08:17:15;4.18;;;2.38;;
17961;SDS011;9106;52.438;13.364;2022-07-29T08:22:18;3.58;;;2.72;;
17961;SDS011;9106;52.438;13.364;2022-07-29T08:27:22;5.63;;;2.42;;
17961;SDS011;9106;52.438;13.364;2022-07-29T08:32:44;6.57;;;2.38;;
17961;SDS011;9106;52.438;13.364;2022-07-29T08:37:56;3.95;;;2.65;;
17961;SDS011;9106;52.438;13.364;2022-07-29T08:43:05;6.30;;;2.38;;
17961;SDS011;9106;52.438;13.364;2022-07-29T08:48:08;4.22;;;2.33;;
17961;SDS011;9106;52.438;13.364;2022-07-29T08:53:12;11.10;;;2.20;;
17961;SDS011;9106;52.438;13.364;2022-07-29T08:58:16;7.30;;;2.60;;
17961;SDS011;9106;52.438;13.364;2022-07-29T09:03:25;8.77;;;2.47;;
17961;SDS011;9106;52.438;13.364;2022-07-29T09:08:30;5.15;;;2.55;;
17961;SDS011;9106;52.438;13.364;2022-07-29T09:13:35;6.43;;;2.47;;
17961;SDS011;9106;52.438;13.364;2022-07-29T09:18:44;4.53;;;2.47;;
17961;SDS011;9106;52.438;13.364;2022-07-29T09:24:01;7.53;;;2.80;;
17961;SDS011;9106;52.438;13.364;2022-07-29T09:29:10;3.22;;;2.30;;
17961;SDS011;9106;52.438;13.364;2022-07-29T09:34:14;7.55;;;2.85;;
17961;SDS011;9106;52.438;13.364;2022-07-29T09:39:27;7.75;;;2.15;;
17961;SDS011;9106;52.438;13.364;2022-07-29T09:44:45;4.85;;;2.22;;
17961;SDS011;9106;52.438;13.364;2022-07-29T09:49:50;12.38;;;2.10;;
17961;SDS011;9106;52.438;13.364;2022-07-29T09:55:03;4.25;;;2.10;;
17961;SDS011;9106;52.438;13.364;2022-07-29T10:00:10;4.10;;;2.33;;
17961;SDS011;9106;52.438;13.364;2022-07-29T10:05:20;3.97;;;2.25;;
17961;SDS011;9106;52.438;13.364;2022-07-29T10:10:24;7.07;;;1.88;;
17961;SDS011;9106;52.438;13.364;2022-07-29T10:15:29;4.93;;;2.10;;
17961;SDS011;9106;52.438;13.364;2022-07-29T10:20:33;4.35;;;1.92;;
17961;SDS011;9106;52.438;13.364;2022-07-29T10:25:39;4.05;;;1.98;;
17961;SDS011;9106;52.438;13.364;2022-07-29T10:30:48;6.78;;;2.20;;
17961;SDS011;9106;52.438;13.364;2022-07-29T10:36:02;3.80;;;2.20;;
17961;SDS011;9106;52.438;13.364;2022-07-29T10:41:11;5.80;;;2.67;;
17961;SDS011;9106;52.438;13.364;2022-07-29T10:46:45;5.68;;;2.50;;
17961;SDS011;9106;52.438;13.364;2022-07-29T10:51:56;3.25;;;2.13;;
17961;SDS011;9106;52.438;13.364;2022-07-29T10:57:10;3.72;;;1.83;;
17961;SDS011;9106;52.438;13.364;2022-07-29T11:19:21;4.70;;;2.60;;
17961;SDS011;9106;52.438;13.364;2022-07-29T11:24:31;6.05;;;2.70;;
17961;SDS011;9106;52.438;13.364;2022-07-29T11:29:35;4.47;;;2.28;;
17961;SDS011;9106;52.438;13.364;2022-07-29T11:34:44;4.13;;;2.60;;
17961;SDS011;9106;52.438;13.364;2022-07-29T11:45:06;3.60;;;2.50;;
17961;SDS011;9106;52.438;13.364;2022-07-29T11:50:35;4.35;;;2.63;;
17961;SDS011;9106;52.438;13.364;2022-07-29T11:55:45;4.55;;;2.60;;
17961;SDS011;9106;52.438;13.364;2022-07-29T12:00:52;5.38;;;2.67;;
17961;SDS011;9106;52.438;13.364;2022-07-29T12:05:59;4.03;;;2.55;;
17961;SDS011;9106;52.438;13.364;2022-07-29T12:11:15;4.75;;;2.88;;
17961;SDS011;9106;52.438;13.364;2022-07-29T12:16:37;9.10;;;3.28;;
17961;SDS011;9106;52.438;13.364;2022-07-29T12:22:02;5.88;;;3.25;;
17961;SDS011;9106;52.438;13.364;2022-07-29T12:27:06;7.85;;;3.00;;
17961;SDS011;9106;52.438;13.364;2022-07-29T12:32:09;5.60;;;2.97;;
17961;SDS011;9106;52.438;13.364;2022-07-29T12:37:21;5.43;;;2.92;;
17961;SDS011;9106;52.438;13.364;2022-07-29T12:42:41;10.93;;;3.28;;
17961;SDS011;9106;52.438;13.364;2022-07-29T12:47:50;5.55;;;3.03;;
17961;SDS011;9106;52.438;13.364;2022-07-29T12:53:03;8.93;;;3.05;;
17961;SDS011;9106;52.438;13.364;2022-07-29T12:58:10;4.35;;;3.35;;
17961;SDS011;9106;52.438;13.364;2022-07-29T13:03:12;3.30;;;3.00;;
17961;SDS011;9106;52.438;13.364;2022-07-29T13:08:17;5.47;;;3.40;;
17961;SDS011;9106;52.438;13.364;2022-07-29T13:13:31;6.18;;;3.40;;
17961;SDS011;9106;52.438;13.364;2022-07-29T13:28:53;6.53;;;3.38;;
17961;SDS011;9106;52.438;13.364;2022-07-29T13:34:03;5.03;;;3.38;;
17961;SDS011;9106;52.438;13.364;2022-07-29T13:39:12;6.20;;;3.40;;
17961;SDS011;9106;52.438;13.364;2022-07-29T13:44:16;9.27;;;4.13;;
17961;SDS011;9106;52.438;13.364;2022-07-29T13:49:19;6.10;;;3.67;;
17961;SDS011;9106;52.438;13.364;2022-07-29T13:54:22;4.20;;;3.08;;
17961;SDS011;9106;52.438;13.364;2022-07-29T13:59:30;5.35;;;3.38;;
17961;SDS011;9106;52.438;13.364;2022-07-29T14:04:33;6.38;;;3.60;;
17961;SDS011;9106;52.438;13.364;2022-07-29T14:09:35;6.45;;;3.55;;
17961;SDS011;9106;52.438;13.364;2022-07-29T14:14:44;7.32;;;3.70;;
17961;SDS011;9106;52.438;13.364;2022-07-29T14:19:47;6.65;;;3.65;;
17961;SDS011;9106;52.438;13.364;2022-07-29T14:24:50;6.47;;;3.70;;
17961;SDS011;9106;52.438;13.364;2022-07-29T14:39:53;9.70;;;3.78;;
17961;SDS011;9106;52.438;13.364;2022-07-29T14:45:02;4.40;;;3.50;;
17961;SDS011;9106;52.438;13.364;2022-07-29T14:50:05;6.13;;;3.65;;
17961;SDS011;9106;52.438;13.364;2022-07-29T14:55:09;4.90;;;3.53;;
17961;SDS011;9106;52.438;13.364;2022-07-29T15:00:20;5.65;;;3.58;;
17961;SDS011;9106;52.438;13.364;2022-07-29T15:05:23;6.22;;;3.58;;
17961;SDS011;9106;52.438;13.364;2022-07-29T15:10:27;8.30;;;3.38;;
17961;SDS011;9106;52.438;13.364;2022-07-29T15:15:30;7.50;;;3.90;;
17961;SDS011;9106;52.438;13.364;2022-07-29T15:20:35;4.95;;;3.50;;
17961;SDS011;9106;52.438;13.364;2022-07-29T15:30:46;6.00;;;3.42;;
17961;SDS011;9106;52.438;13.364;2022-07-29T15:35:55;6.38;;;3.70;;
17961;SDS011;9106;52.438;13.364;2022-07-29T15:40:58;8.80;;;3.55;;
17961;SDS011;9106;52.438;13.364;2022-07-29T15:46:08;6.57;;;3.90;;
17961;SDS011;9106;52.438;13.364;2022-07-29T15:51:28;4.68;;;3.40;;
17961;SDS011;9106;52.438;13.364;2022-07-29T15:56:33;11.23;;;3.42;;
17961;SDS011;9106;52.438;13.364;2022-07-29T16:01:38;10.00;;;4.05;;
17961;SDS011;9106;52.438;13.364;2022-07-29T16:06:43;8.43;;;3.70;;
17961;SDS011;9106;52.438;13.364;2022-07-29T16:11:47;6.20;;;3.90;;
17961;SDS011;9106;52.438;13.364;2022-07-29T16:16:52;6.22;;;3.20;;
17961;SDS011;9106;52.438;13.364;2022-07-29T16:21:58;11.73;;;4.00;;
17961;SDS011;9106;52.438;13.364;2022-07-29T16:27:01;8.65;;;4.82;;
17961;SDS011;9106;52.438;13.364;2022-07-29T16:32:05;10.25;;;3.80;;
17961;SDS011;9106;52.438;13.364;2022-07-29T16:37:08;10.82;;;3.33;;
17961;SDS011;9106;52.438;13.364;2022-07-29T16:42:11;5.13;;;2.97;;
17961;SDS011;9106;52.438;13.364;2022-07-29T16:47:35;4.75;;;3.20;;
17961;SDS011;9106;52.438;13.364;2022-07-29T16:52:38;6.45;;;3.05;;
17961;SDS011;9106;52.438;13.364;2022-07-29T16:57:41;4.90;;;3.20;;
17961;SDS011;9106;52.438;13.364;2022-07-29T17:02:45;5.20;;;3.83;;
17961;SDS011;9106;52.438;13.364;2022-07-29T17:07:48;6.63;;;3.55;;
17961;SDS011;9106;52.438;13.364;2022-07-29T17:12:51;6.72;;;3.75;;
17961;SDS011;9106;52.438;13.364;2022-07-29T17:17:55;8.20;;;3.80;;
17961;SDS011;9106;52.438;13.364;2022-07-29T17:22:59;4.68;;;3.35;;
17961;SDS011;9106;52.438;13.364;2022-07-29T17:28:03;4.25;;;3.17;;
17961;SDS011;9106;52.438;13.364;2022-07-29T17:33:07;4.28;;;3.40;;
17961;SDS011;9106;52.438;13.364;2022-07-29T17:38:09;7.07;;;2.90;;
17961;SDS011;9106;52.438;13.364;2022-07-29T17:43:12;8.40;;;3.13;;
17961;SDS011;9106;52.438;13.364;2022-07-29T17:48:16;6.57;;;3.08;;
17961;SDS011;9106;52.438;13.364;2022-07-29T17:53:23;5.50;;;3.10;;
17961;SDS011;9106;52.438;13.364;2022-07-29T17:58:47;6.85;;;3.33;;
17961;SDS011;9106;52.438;13.364;2022-07-29T18:03:52;6.18;;;3.13;;
17961;SDS011;9106;52.438;13.364;2022-07-29T18:09:00;9.27;;;3.03;;
17961;SDS011;9106;52.438;13.364;2022-07-29T18:14:03;6.25;;;2.75;;
17961;SDS011;9106;52.438;13.364;2022-07-29T18:19:07;6.00;;;2.88;;
17961;SDS011;9106;52.438;13.364;2022-07-29T18:24:09;6.53;;;3.00;;
17961;SDS011;9106;52.438;13.364;2022-07-29T18:29:12;7.25;;;3.13;;
17961;SDS011;9106;52.438;13.364;2022-07-29T18:34:16;4.13;;;2.67;;
17961;SDS011;9106;52.438;13.364;2022-07-29T18:39:19;6.90;;;2.80;;
17961;SDS011;9106;52.438;13.364;2022-07-29T18:44:22;8.25;;;2.88;;
17961;SDS011;9106;52.438;13.364;2022-07-29T18:49:26;4.30;;;2.65;;
17961;SDS011;9106;52.438;13.364;2022-07-29T18:54:29;6.38;;;2.85;;
17961;SDS011;9106;52.438;13.364;2022-07-29T18:59:32;5.63;;;2.60;;
17961;SDS011;9106;52.438;13.364;2022-07-29T19:04:39;4.43;;;2.45;;
17961;SDS011;9106;52.438;13.364;2022-07-29T19:09:42;11.77;;;2.85;;
17961;SDS011;9106;52.438;13.364;2022-07-29T19:14:55;13.88;;;3.35;;
17961;SDS011;9106;52.438;13.364;2022-07-29T19:20:00;6.18;;;2.22;;
17961;SDS011;9106;52.438;13.364;2022-07-29T19:25:05;4.00;;;2.42;;
17961;SDS011;9106;52.438;13.364;2022-07-29T19:30:10;4.57;;;2.55;;
17961;SDS011;9106;52.438;13.364;2022-07-29T19:35:18;5.72;;;2.60;;
17961;SDS011;9106;52.438;13.364;2022-07-29T19:40:28;4.20;;;2.22;;
17961;SDS011;9106;52.438;13.364;2022-07-29T19:45:32;4.57;;;2.53;;
17961;SDS011;9106;52.438;13.364;2022-07-29T19:50:38;7.75;;;2.78;;
17961;SDS011;9106;52.438;13.364;2022-07-29T19:55:43;4.22;;;2.80;;
17961;SDS011;9106;52.438;13.364;2022-07-29T20:00:46;4.22;;;2.53;;
17961;SDS011;9106;52.438;13.364;2022-07-29T20:05:50;9.02;;;2.95;;
17961;SDS011;9106;52.438;13.364;2022-07-29T20:10:54;4.72;;;2.60;;
17961;SDS011;9106;52.438;13.364;2022-07-29T20:16:00;5.50;;;3.40;;
17961;SDS011;9106;52.438;13.364;2022-07-29T20:21:12;6.82;;;2.40;;
17961;SDS011;9106;52.438;13.364;2022-07-29T20:26:16;5.43;;;2.42;;
17961;SDS011;9106;52.438;13.364;2022-07-29T20:31:18;3.67;;;2.30;;
17961;SDS011;9106;52.438;13.364;2022-07-29T20:36:23;5.60;;;2.45;;
17961;SDS011;9106;52.438;13.364;2022-07-29T20:41:26;2.80;;;2.10;;
17961;SDS011;9106;52.438;13.364;2022-07-29T20:46:29;3.13;;;2.05;;
17961;SDS011;9106;52.438;13.364;2022-07-29T20:51:36;5.28;;;2.60;;
17961;SDS011;9106;52.438;13.364;2022-07-29T20:56:44;6.47;;;2.47;;
17961;SDS011;9106;52.438;13.364;2022-07-29T21:01:47;3.83;;;2.28;;
17961;SDS011;9106;52.438;13.364;2022-07-29T21:06:51;7.28;;;2.50;;
17961;SDS011;9106;52.438;13.364;2022-07-29T21:11:53;5.57;;;2.40;;
17961;SDS011;9106;52.438;13.364;2022-07-29T21:16:56;5.65;;;2.58;;
17961;SDS011;9106;52.438;13.364;2022-07-29T21:22:01;6.90;;;2.33;;
17961;SDS011;9106;52.438;13.364;2022-07-29T21:27:04;3.70;;;2.35;;
17961;SDS011;9106;52.438;13.364;2022-07-29T21:32:25;3.35;;;2.67;;
17961;SDS011;9106;52.438;13.364;2022-07-29T21:37:34;4.30;;;2.30;;
17961;SDS011;9106;52.438;13.364;2022-07-29T21:42:37;5.88;;;2.65;;
17961;SDS011;9106;52.438;13.364;2022-07-29T21:47:41;7.13;;;2.40;;
17961;SDS011;9106;52.438;13.364;2022-07-29T21:52:44;3.13;;;2.25;;
17961;SDS011;9106;52.438;13.364;2022-07-29T21:57:47;8.95;;;2.60;;
17961;SDS011;9106;52.438;13.364;2022-07-29T22:02:50;3.33;;;2.53;;
17961;SDS011;9106;52.438;13.364;2022-07-29T22:07:54;4.18;;;2.63;;
17961;SDS011;9106;52.438;13.364;2022-07-29T22:12:58;3.17;;;2.38;;
17961;SDS011;9106;52.438;13.364;2022-07-29T22:18:01;5.13;;;2.50;;
17961;SDS011;9106;52.438;13.364;2022-07-29T22:23:05;3.22;;;2.70;;
17961;SDS011;9106;52.438;13.364;2022-07-29T22:28:08;4.25;;;2.47;;
17961;SDS011;9106;52.438;13.364;2022-07-29T22:33:13;6.00;;;2.70;;
17961;SDS011;9106;52.438;13.364;2022-07-29T22:38:19;6.53;;;2.50;;
17961;SDS011;9106;52.438;13.364;2022-07-29T22:43:22;6.90;;;2.83;;
17961;SDS011;9106;52.438;13.364;2022-07-29T22:48:25;7.30;;;2.83;;
17961;SDS011;9106;52.438;13.364;2022-07-29T22:53:31;5.97;;;2.38;;
17961;SDS011;9106;52.438;13.364;2022-07-29T22:58:43;3.95;;;2.63;;
17961;SDS011;9106;52.438;13.364;2022-07-29T23:04:00;6.65;;;2.65;;
17961;SDS011;9106;52.438;13.364;2022-07-29T23:09:10;6.65;;;2.67;;
17961;SDS011;9106;52.438;13.364;2022-07-29T23:14:15;5.40;;;2.88;;
17961;SDS011;9106;52.438;13.364;2022-07-29T23:19:21;5.70;;;2.78;;
17961;SDS011;9106;52.438;13.364;2022-07-29T23:24:31;4.50;;;2.50;;
17961;SDS011;9106;52.438;13.364;2022-07-29T23:29:35;6.63;;;2.60;;
17961;SDS011;9106;52.438;13.364;2022-07-29T23:34:39;7.78;;;2.88;;
17961;SDS011;9106;52.438;13.364;2022-07-29T23:39:44;5.47;;;2.80;;
17961;SDS011;9106;52.438;13.364;2022-07-29T23:44:47;5.05;;;2.60;;
17961;SDS011;9106;52.438;13.364;2022-07-29T23:49:52;6.50;;;2.40;;
17961;SDS011;9106;52.438;13.364;2022-07-29T23:54:56;5.15;;;2.55;;
